KZ-0019 weather

Zakirovskiy Airport
Almaty, Almaty Region, Kazakhstan

Public forecast

Using degrees Celsius for public forecast. Weather courtesy of forecast.io.

Closest aviation weather report (METAR) to Zakirovskiy Airport

Closest report is Almaty Airport, 5.8 nm (10.7 km) S. Retrieved 2019/10/24 03:30 UTC (0 seconds ago):

UAAA 240330Z 23002MPS 170V260 9999 SCT200 07/M00 Q1025 R05R/CLRD65 NOSIG

Closest aviation forecast (TAF) to Zakirovskiy Airport

Closest forecast is Almaty Airport, 5.8 nm (10.7 km) S. Retrieved 2019-10-24 00:21 UTC (3 hours ago):

TAF UAAA 232300Z 2400/2424 04003G08MPS 9999 SCT050 BKN100 TX16/2408Z TN00/2401Z TEMPO 2400/2402 22003MPS 3100 BR FU BECMG 2412/2413 16003MPS 3100 BR FU TEMPO 2412/2418 1700